createdAt,value
2017-11-08T00:01:29.258Z,8.30
2017-11-08T00:03:56.822Z,8.30
2017-11-08T00:06:24.397Z,8.30
2017-11-08T00:08:52.704Z,8.30
2017-11-08T00:11:20.381Z,8.30
2017-11-08T00:13:47.940Z,8.30
2017-11-08T00:16:15.521Z,8.30
2017-11-08T00:18:43.075Z,8.30
2017-11-08T00:21:10.627Z,8.30
2017-11-08T00:23:41.103Z,8.20
2017-11-08T00:26:08.653Z,8.20
2017-11-08T00:28:36.218Z,8.10
2017-11-08T00:31:03.782Z,8.10
2017-11-08T00:33:31.337Z,8.10
2017-11-08T00:35:59.110Z,8.00
2017-11-08T00:38:27.442Z,7.90
2017-11-08T00:40:55.006Z,7.90
2017-11-08T00:43:22.555Z,7.90
2017-11-08T00:45:50.131Z,8.00
2017-11-08T00:48:17.687Z,8.00
2017-11-08T00:50:45.241Z,8.10
2017-11-08T00:53:21.655Z,8.10
2017-11-08T00:55:50.050Z,8.20
2017-11-08T00:58:18.420Z,8.20
2017-11-08T01:00:46.939Z,8.30
2017-11-08T01:03:14.495Z,8.20
2017-11-08T01:05:42.054Z,8.30
2017-11-08T01:08:09.660Z,8.20
2017-11-08T01:10:37.261Z,8.30
2017-11-08T01:13:04.824Z,8.20
2017-11-08T01:15:32.422Z,7.90
2017-11-08T01:18:00.027Z,7.80
2017-11-08T01:20:28.496Z,7.80
2017-11-08T01:22:56.827Z,7.80
2017-11-08T01:25:24.394Z,7.80
2017-11-08T01:27:51.934Z,7.90
2017-11-08T01:30:19.500Z,7.90
2017-11-08T01:32:47.848Z,7.90
2017-11-08T01:35:17.018Z,7.90
2017-11-08T01:37:46.560Z,7.90
2017-11-08T01:40:14.872Z,8.00
2017-11-08T01:42:42.447Z,7.90
2017-11-08T01:45:10.005Z,8.00
2017-11-08T01:47:37.574Z,8.00
2017-11-08T01:50:05.133Z,8.00
2017-11-08T01:52:32.683Z,8.10
2017-11-08T01:55:00.248Z,8.10
2017-11-08T01:57:27.834Z,8.20
2017-11-08T01:59:55.411Z,8.10
2017-11-08T02:02:23.708Z,8.20
2017-11-08T02:04:51.269Z,8.20
2017-11-08T02:07:18.830Z,8.20
2017-11-08T02:09:46.389Z,8.20
2017-11-08T02:12:13.962Z,8.20
2017-11-08T02:14:41.507Z,8.20
2017-11-08T02:17:09.089Z,8.20
2017-11-08T02:19:36.635Z,8.20
2017-11-08T02:22:04.209Z,8.20
2017-11-08T02:24:31.843Z,8.20
2017-11-08T02:27:06.147Z,8.20
2017-11-08T02:29:34.467Z,8.20
2017-11-08T02:32:02.074Z,8.20
2017-11-08T02:34:29.617Z,8.20
2017-11-08T02:36:57.165Z,8.20
2017-11-08T02:39:24.717Z,8.20
2017-11-08T02:41:52.257Z,8.20
2017-11-08T02:44:19.809Z,8.20
2017-11-08T02:46:58.192Z,8.20
2017-11-08T02:49:25.749Z,8.20
2017-11-08T02:51:53.286Z,8.20
2017-11-08T02:54:23.774Z,8.10
2017-11-08T02:56:51.340Z,8.10
2017-11-08T02:59:18.898Z,8.20
2017-11-08T03:01:46.459Z,8.20
2017-11-08T03:04:14.036Z,8.20
2017-11-08T03:06:41.602Z,8.20
2017-11-08T03:09:09.175Z,8.20
2017-11-08T03:11:36.728Z,8.20
2017-11-08T03:14:04.285Z,8.20
2017-11-08T03:16:31.826Z,8.20
2017-11-08T03:18:59.389Z,8.20
2017-11-08T03:21:26.966Z,8.20
2017-11-08T03:23:54.544Z,8.20
2017-11-08T03:26:22.088Z,8.20
2017-11-08T03:28:49.653Z,8.10
2017-11-08T03:31:17.230Z,8.00
2017-11-08T03:33:44.800Z,8.00
2017-11-08T03:36:13.285Z,7.90
2017-11-08T03:38:40.860Z,7.90
2017-11-08T03:41:09.198Z,7.80
2017-11-08T03:43:36.755Z,7.80
2017-11-08T03:46:04.329Z,7.80
2017-11-08T03:48:31.876Z,7.80
2017-11-08T03:50:59.457Z,7.80
2017-11-08T03:53:27.020Z,7.80
2017-11-08T03:55:54.587Z,7.80
2017-11-08T03:58:22.924Z,7.70
2017-11-08T04:00:50.493Z,7.70
2017-11-08T04:03:18.041Z,7.70
2017-11-08T04:05:45.594Z,7.80
2017-11-08T04:08:13.126Z,7.80
2017-11-08T04:10:40.693Z,7.80
2017-11-08T04:13:08.265Z,7.80
2017-11-08T04:15:35.814Z,7.90
2017-11-08T04:18:03.398Z,7.80
2017-11-08T04:20:30.948Z,7.80
2017-11-08T04:22:58.505Z,7.80
2017-11-08T04:25:26.079Z,7.80
2017-11-08T04:27:53.609Z,7.90
2017-11-08T04:30:21.183Z,7.80
2017-11-08T04:32:48.752Z,7.90
2017-11-08T04:35:16.308Z,7.90
2017-11-08T04:37:43.873Z,7.90
2017-11-08T04:40:11.437Z,7.90
2017-11-08T04:42:38.998Z,7.90
2017-11-08T04:45:06.585Z,8.00
2017-11-08T04:47:34.134Z,7.90
2017-11-08T04:50:01.711Z,8.00
2017-11-08T04:52:29.274Z,7.90
2017-11-08T04:54:56.811Z,7.80
2017-11-08T04:57:24.368Z,7.80
2017-11-08T04:59:51.929Z,7.70
2017-11-08T05:02:19.481Z,7.60
2017-11-08T05:04:47.825Z,7.50
2017-11-08T05:07:15.378Z,7.50
2017-11-08T05:09:42.946Z,7.60
2017-11-08T05:12:10.541Z,7.60
2017-11-08T05:14:38.096Z,7.70
2017-11-08T05:17:05.662Z,7.70
2017-11-08T05:19:33.202Z,7.60
2017-11-08T05:22:00.768Z,7.60
2017-11-08T05:24:36.283Z,7.50
2017-11-08T05:27:04.602Z,7.40
2017-11-08T05:29:41.405Z,7.30
2017-11-08T05:32:25.853Z,7.30
2017-11-08T05:34:53.422Z,7.30
2017-11-08T05:37:20.983Z,7.30
2017-11-08T05:39:48.570Z,7.30
2017-11-08T05:42:16.127Z,7.20
2017-11-08T05:44:43.702Z,7.30
2017-11-08T05:47:11.283Z,7.30
2017-11-08T05:49:38.871Z,7.30
2017-11-08T05:52:06.421Z,7.40
2017-11-08T05:54:34.758Z,7.40
2017-11-08T05:57:02.318Z,7.40
2017-11-08T05:59:29.892Z,7.30
2017-11-08T06:01:57.439Z,7.30
2017-11-08T06:04:24.990Z,7.30
2017-11-08T06:06:52.541Z,7.40
2017-11-08T06:09:20.094Z,7.50
2017-11-08T06:11:47.670Z,7.50
2017-11-08T06:14:15.230Z,7.60
2017-11-08T06:16:42.784Z,7.60
2017-11-08T06:19:10.333Z,7.70
2017-11-08T06:21:37.928Z,7.70
2017-11-08T06:24:05.465Z,7.70
2017-11-08T06:26:33.073Z,7.60
2017-11-08T06:29:01.391Z,7.50
2017-11-08T06:31:28.938Z,7.50
2017-11-08T06:33:56.487Z,7.60
2017-11-08T06:36:24.785Z,7.60
2017-11-08T06:38:52.354Z,7.50
2017-11-08T06:41:20.682Z,7.60
2017-11-08T06:43:49.010Z,7.70
2017-11-08T06:46:16.563Z,7.60
2017-11-08T06:48:44.125Z,7.70
2017-11-08T06:51:11.691Z,7.80
2017-11-08T06:53:43.230Z,7.80
2017-11-08T06:56:10.780Z,7.80
2017-11-08T06:58:38.334Z,7.90
2017-11-08T07:01:05.873Z,7.80
2017-11-08T07:03:34.194Z,7.80
2017-11-08T07:06:01.756Z,7.80
2017-11-08T07:08:31.322Z,7.80
2017-11-08T07:10:59.653Z,7.80
2017-11-08T07:13:27.196Z,7.80
2017-11-08T07:15:54.768Z,7.70
2017-11-08T07:18:22.323Z,7.70
2017-11-08T07:20:50.354Z,7.70
2017-11-08T07:23:18.694Z,7.70
2017-11-08T07:25:46.267Z,7.70
2017-11-08T07:28:14.654Z,7.70
2017-11-08T07:30:42.211Z,7.80
2017-11-08T07:33:09.826Z,7.80
2017-11-08T07:35:37.361Z,7.90
2017-11-08T07:38:04.975Z,7.90
2017-11-08T07:40:32.513Z,8.00
2017-11-08T07:43:00.069Z,7.90
2017-11-08T07:45:27.650Z,7.90
2017-11-08T07:47:55.198Z,7.90
2017-11-08T07:50:22.765Z,8.00
2017-11-08T07:52:50.325Z,8.00
2017-11-08T07:55:37.793Z,7.80
2017-11-08T07:58:06.158Z,7.70
2017-11-08T08:00:33.768Z,7.70
2017-11-08T08:03:01.331Z,7.70
2017-11-08T08:05:28.991Z,7.70
2017-11-08T08:07:57.551Z,7.70
2017-11-08T08:10:25.129Z,7.70
2017-11-08T08:12:52.725Z,7.70
2017-11-08T08:15:20.294Z,7.60
2017-11-08T08:17:47.917Z,7.60
2017-11-08T08:20:15.458Z,7.50
2017-11-08T08:22:43.014Z,7.60
2017-11-08T08:25:10.579Z,7.70
2017-11-08T08:27:38.186Z,7.70
2017-11-08T08:30:05.820Z,7.80
2017-11-08T08:32:33.389Z,7.80
2017-11-08T08:35:00.975Z,7.90
2017-11-08T08:37:28.509Z,8.00
2017-11-08T08:39:56.059Z,8.00
2017-11-08T08:42:23.625Z,8.10
2017-11-08T08:44:51.177Z,8.10
2017-11-08T08:47:19.178Z,8.10
2017-11-08T08:49:46.761Z,8.20
2017-11-08T08:52:14.328Z,8.20
2017-11-08T08:54:42.671Z,8.30
2017-11-08T08:57:10.243Z,8.30
2017-11-08T08:59:37.809Z,8.40
2017-11-08T09:02:11.118Z,8.40
2017-11-08T09:04:39.457Z,8.40
2017-11-08T09:07:07.019Z,8.40
2017-11-08T09:09:34.586Z,8.40
2017-11-08T09:12:02.140Z,8.30
2017-11-08T09:14:29.669Z,8.30
2017-11-08T09:16:57.226Z,8.30
2017-11-08T09:19:24.817Z,8.30
2017-11-08T09:21:52.424Z,8.30
2017-11-08T09:24:20.754Z,8.40
2017-11-08T09:26:48.390Z,8.30
2017-11-08T09:29:17.776Z,8.40
2017-11-08T09:31:46.093Z,8.40
2017-11-08T09:34:13.680Z,8.40
2017-11-08T09:36:41.235Z,8.40
2017-11-08T09:39:08.802Z,8.30
2017-11-08T09:41:36.372Z,8.20
2017-11-08T09:44:03.907Z,8.20
2017-11-08T09:46:31.493Z,8.30
2017-11-08T09:48:59.054Z,8.30
2017-11-08T09:51:26.608Z,8.20
2017-11-08T09:53:54.227Z,8.20
2017-11-08T09:56:21.772Z,8.10
2017-11-08T09:58:50.142Z,8.10
2017-11-08T10:01:23.652Z,8.20
2017-11-08T10:03:51.204Z,8.20
2017-11-08T10:06:19.521Z,8.20
2017-11-08T10:08:47.073Z,8.20
2017-11-08T10:11:18.085Z,8.20
2017-11-08T10:13:45.631Z,8.30
2017-11-08T10:16:18.858Z,8.10
2017-11-08T10:18:46.417Z,8.10
2017-11-08T10:21:13.990Z,8.10
2017-11-08T10:23:41.528Z,8.20
2017-11-08T10:26:09.076Z,8.20
2017-11-08T10:28:36.614Z,8.10
2017-11-08T10:31:04.952Z,8.10
2017-11-08T10:33:32.499Z,8.10
2017-11-08T10:36:00.062Z,8.10
2017-11-08T10:38:27.605Z,8.20
2017-11-08T10:40:55.182Z,8.10
2017-11-08T10:43:22.699Z,8.10
2017-11-08T10:45:50.279Z,8.10
2017-11-08T10:48:17.861Z,8.20
2017-11-08T10:50:45.409Z,8.10
2017-11-08T10:53:12.985Z,8.20
2017-11-08T10:55:40.552Z,8.20
2017-11-08T10:58:08.930Z,8.30
2017-11-08T11:00:37.413Z,8.20
2017-11-08T11:03:06.750Z,8.30
2017-11-08T11:05:34.306Z,8.30
2017-11-08T11:08:01.881Z,8.20
2017-11-08T11:10:29.485Z,8.20
2017-11-08T11:13:04.664Z,8.20
2017-11-08T11:15:32.244Z,8.20
2017-11-08T11:17:59.809Z,8.20
2017-11-08T11:20:28.173Z,8.20
2017-11-08T11:22:55.746Z,8.20
2017-11-08T11:25:23.411Z,8.20
2017-11-08T11:27:50.987Z,8.20
2017-11-08T11:30:24.085Z,8.20
2017-11-08T11:32:51.684Z,8.30
2017-11-08T11:35:20.029Z,8.30
2017-11-08T11:37:47.648Z,8.30
2017-11-08T11:40:15.241Z,8.20
2017-11-08T11:42:42.798Z,8.20
2017-11-08T11:45:10.373Z,8.10
2017-11-08T11:47:37.972Z,8.10
2017-11-08T11:50:06.323Z,9.40
2017-11-08T11:52:33.890Z,9.40
2017-11-08T11:55:01.512Z,9.60
2017-11-08T11:57:29.068Z,9.30
2017-11-08T11:59:56.649Z,9.10
2017-11-08T12:02:24.224Z,8.90
2017-11-08T12:04:51.803Z,8.80
2017-11-08T12:07:19.423Z,8.70
2017-11-08T12:09:46.977Z,8.60
2017-11-08T12:12:14.556Z,8.60
2017-11-08T12:14:42.124Z,8.70
2017-11-08T12:17:09.764Z,8.60
2017-11-08T12:19:38.295Z,8.50
2017-11-08T12:22:06.619Z,8.40
2017-11-08T12:24:34.198Z,8.40
2017-11-08T12:27:05.694Z,8.30
2017-11-08T12:29:36.944Z,8.30
2017-11-08T12:32:05.263Z,8.30
2017-11-08T12:34:32.840Z,8.30
2017-11-08T12:37:00.409Z,8.40
2017-11-08T12:39:27.983Z,8.30
2017-11-08T12:41:55.591Z,8.30
2017-11-08T12:44:26.072Z,8.20
2017-11-08T12:46:53.648Z,8.30
2017-11-08T12:49:21.984Z,8.10
2017-11-08T12:51:49.550Z,8.10
2017-11-08T12:54:17.152Z,8.10
2017-11-08T12:56:45.520Z,8.20
2017-11-08T12:59:13.891Z,8.10
2017-11-08T13:01:42.498Z,8.10
2017-11-08T13:04:10.860Z,8.10
2017-11-08T13:06:38.675Z,8.10
2017-11-08T13:09:06.248Z,8.20
2017-11-08T13:11:35.750Z,8.10
2017-11-08T13:14:03.314Z,8.10
2017-11-08T13:16:30.875Z,8.20
2017-11-08T13:18:58.642Z,8.10
2017-11-08T13:21:26.180Z,8.20
2017-11-08T13:23:54.082Z,8.20
2017-11-08T13:26:21.661Z,8.30
2017-11-08T13:28:49.243Z,8.20
2017-11-08T13:31:16.823Z,8.20
2017-11-08T13:33:45.178Z,8.20
2017-11-08T13:36:12.779Z,8.20
2017-11-08T13:38:40.337Z,8.10
2017-11-08T13:41:07.935Z,8.10
2017-11-08T13:43:35.522Z,8.10
2017-11-08T13:46:03.907Z,8.20
2017-11-08T13:48:32.269Z,8.30
2017-11-08T13:50:59.851Z,8.30
2017-11-08T13:53:28.247Z,8.30
2017-11-08T13:55:56.583Z,8.40
2017-11-08T13:58:25.086Z,8.30
2017-11-08T14:00:52.661Z,8.40
2017-11-08T14:03:21.018Z,8.30
2017-11-08T14:05:48.579Z,8.30
2017-11-08T14:08:16.138Z,8.30
2017-11-08T14:10:43.701Z,8.20
2017-11-08T14:13:11.304Z,8.30
2017-11-08T14:15:38.871Z,8.30
2017-11-08T14:18:06.488Z,8.30
2017-11-08T14:20:34.042Z,8.30
2017-11-08T14:23:01.580Z,8.30
2017-11-08T14:25:29.172Z,8.20
2017-11-08T14:27:57.497Z,8.20
2017-11-08T14:30:25.089Z,8.20
2017-11-08T14:32:52.667Z,8.20
2017-11-08T14:35:20.218Z,8.20
2017-11-08T14:37:55.328Z,8.20
2017-11-08T14:40:22.974Z,8.30
2017-11-08T14:42:52.337Z,8.20
2017-11-08T14:45:20.680Z,8.10
2017-11-08T14:47:48.231Z,8.00
2017-11-08T14:50:15.799Z,8.10
2017-11-08T14:52:43.336Z,8.10
2017-11-08T14:55:11.686Z,8.10
2017-11-08T14:57:40.034Z,8.10
2017-11-08T15:00:07.592Z,8.10
2017-11-08T15:02:35.188Z,8.10
2017-11-08T15:05:03.566Z,8.20
2017-11-08T15:07:31.889Z,8.10
2017-11-08T15:10:00.209Z,8.10
2017-11-08T15:12:34.103Z,8.10
2017-11-08T15:15:02.479Z,8.10
2017-11-08T15:17:30.106Z,8.10
2017-11-08T15:19:59.677Z,8.10
2017-11-08T15:22:27.998Z,8.10
2017-11-08T15:24:55.589Z,8.10
2017-11-08T15:27:23.151Z,8.10
2017-11-08T15:29:53.593Z,8.10
2017-11-08T15:32:21.938Z,8.10
2017-11-08T15:34:49.534Z,8.10
2017-11-08T15:37:17.830Z,8.00
2017-11-08T15:40:03.027Z,8.00
2017-11-08T15:42:30.577Z,8.00
2017-11-08T15:44:58.213Z,8.10
2017-11-08T15:47:27.049Z,8.20
2017-11-08T15:49:55.469Z,8.20
2017-11-08T15:52:23.451Z,8.20
2017-11-08T15:54:51.595Z,8.30
2017-11-08T15:57:19.196Z,8.30
2017-11-08T15:59:47.299Z,8.20
2017-11-08T16:02:18.798Z,8.20
2017-11-08T16:04:47.159Z,8.20
2017-11-08T16:07:14.838Z,8.20
2017-11-08T16:09:44.397Z,8.20
2017-11-08T16:12:12.820Z,8.10
2017-11-08T16:14:40.590Z,8.20
2017-11-08T16:17:12.068Z,8.20
2017-11-08T16:19:41.319Z,8.20
2017-11-08T16:22:08.919Z,8.20
2017-11-08T16:24:57.717Z,8.20
2017-11-08T16:27:26.225Z,8.20
2017-11-08T16:29:53.784Z,8.10
2017-11-08T16:32:21.374Z,8.00
2017-11-08T16:34:49.724Z,8.00
2017-11-08T16:37:17.365Z,8.00
2017-11-08T16:39:44.965Z,8.00
2017-11-08T16:42:12.519Z,7.90
2017-11-08T16:44:40.108Z,8.00
2017-11-08T16:47:08.449Z,8.00
2017-11-08T16:49:36.014Z,8.00
2017-11-08T16:52:03.608Z,8.00
2017-11-08T16:54:31.975Z,8.10
2017-11-08T16:56:59.541Z,8.10
2017-11-08T16:59:27.883Z,8.10
2017-11-08T17:01:55.438Z,8.10
2017-11-08T17:04:22.993Z,8.10
2017-11-08T17:06:50.556Z,8.10
2017-11-08T17:09:18.125Z,8.10
2017-11-08T17:11:45.704Z,8.00
2017-11-08T17:14:13.260Z,7.90
2017-11-08T17:16:40.814Z,8.00
2017-11-08T17:19:08.390Z,8.00
2017-11-08T17:21:35.962Z,7.90
2017-11-08T17:24:03.542Z,7.90
2017-11-08T17:26:55.686Z,8.00
2017-11-08T17:29:24.025Z,7.90
2017-11-08T17:31:51.613Z,7.90
2017-11-08T17:34:19.194Z,8.00
2017-11-08T17:36:46.779Z,7.90
2017-11-08T17:39:15.294Z,7.90
2017-11-08T17:41:42.862Z,7.90
2017-11-08T17:44:10.453Z,7.90
2017-11-08T17:46:38.805Z,7.90
2017-11-08T17:49:06.369Z,7.90
2017-11-08T17:51:33.959Z,7.90
2017-11-08T17:54:02.280Z,7.90
2017-11-08T17:56:29.848Z,7.90
2017-11-08T17:59:00.394Z,7.90
2017-11-08T18:01:27.983Z,8.00
2017-11-08T18:03:55.562Z,8.00
2017-11-08T18:06:23.920Z,8.00
2017-11-08T18:08:51.499Z,8.00
2017-11-08T18:11:19.083Z,8.00
2017-11-08T18:13:46.652Z,7.90
2017-11-08T18:16:15.300Z,8.00
2017-11-08T18:18:42.859Z,8.00
2017-11-08T18:21:11.343Z,8.10
2017-11-08T18:23:38.937Z,8.10
2017-11-08T18:26:06.478Z,8.10
2017-11-08T18:28:34.052Z,8.10
2017-11-08T18:31:02.385Z,8.10
2017-11-08T18:33:30.518Z,8.10
2017-11-08T18:35:58.860Z,8.10
2017-11-08T18:38:26.462Z,8.10
2017-11-08T18:40:54.810Z,8.10
2017-11-08T18:43:22.403Z,8.10
2017-11-08T18:45:50.758Z,8.20
2017-11-08T18:48:18.346Z,8.10
2017-11-08T18:50:46.675Z,8.20
2017-11-08T18:53:14.271Z,8.20
2017-11-08T18:55:41.858Z,8.20
2017-11-08T18:58:09.701Z,8.20
2017-11-08T19:00:38.063Z,8.20
2017-11-08T19:03:07.242Z,8.20
2017-11-08T19:05:36.065Z,8.20
2017-11-08T19:08:05.744Z,8.20
2017-11-08T19:10:36.250Z,8.20
2017-11-08T19:13:07.604Z,8.20
2017-11-08T19:15:35.668Z,8.20
2017-11-08T19:18:03.357Z,8.20
2017-11-08T19:20:31.510Z,8.20
2017-11-08T19:22:59.313Z,8.20
2017-11-08T19:25:27.646Z,8.20
2017-11-08T19:27:55.234Z,8.20
2017-11-08T19:30:24.019Z,8.20
2017-11-08T19:32:55.193Z,8.20
2017-11-08T19:35:23.081Z,8.10
2017-11-08T19:37:51.439Z,8.10
2017-11-08T19:40:20.774Z,8.10
2017-11-08T19:42:48.512Z,8.20
2017-11-08T19:45:16.948Z,8.20
2017-11-08T19:47:48.347Z,8.20
2017-11-08T19:50:17.366Z,8.10
2017-11-08T19:52:46.622Z,8.10
2017-11-08T19:55:16.191Z,8.10
2017-11-08T19:57:43.912Z,8.10
2017-11-08T20:00:16.860Z,8.10
2017-11-08T20:02:49.548Z,8.00
2017-11-08T20:05:19.217Z,8.00
2017-11-08T20:07:51.120Z,8.00
2017-11-08T20:10:19.633Z,8.00
2017-11-08T20:12:49.138Z,8.00
2017-11-08T20:15:21.856Z,8.00
2017-11-08T20:17:53.048Z,8.00
2017-11-08T20:20:23.716Z,8.00
2017-11-08T20:29:45.369Z,8.00
2017-11-08T20:32:18.402Z,8.00
2017-11-08T20:34:46.879Z,8.00
2017-11-08T20:37:16.172Z,8.00
2017-11-08T20:39:47.384Z,8.00
2017-11-08T20:42:14.983Z,8.00
2017-11-08T20:44:46.562Z,8.00
2017-11-08T20:47:15.856Z,8.00
2017-11-08T20:49:44.950Z,8.00
2017-11-08T20:52:13.722Z,8.00
2017-11-08T20:54:42.573Z,8.00
2017-11-08T20:57:10.609Z,8.00
2017-11-08T20:59:39.025Z,7.90
2017-11-08T21:02:07.394Z,7.90
2017-11-08T21:04:35.966Z,8.00
2017-11-08T21:07:04.327Z,8.00
2017-11-08T21:09:31.908Z,7.90
2017-11-08T21:11:59.484Z,8.00
2017-11-08T21:14:27.823Z,8.00
2017-11-08T21:16:55.388Z,8.00
2017-11-08T21:19:23.013Z,7.90
2017-11-08T21:21:50.570Z,7.90
2017-11-08T21:24:18.123Z,7.80
2017-11-08T21:26:46.459Z,7.80
2017-11-08T21:29:14.033Z,7.80
2017-11-08T21:31:41.607Z,7.80
2017-11-08T21:34:09.175Z,7.80
2017-11-08T21:36:37.530Z,7.80
2017-11-08T21:39:05.093Z,7.80
2017-11-08T21:41:32.656Z,7.80
2017-11-08T21:44:00.729Z,7.80
2017-11-08T21:46:28.494Z,7.80
2017-11-08T21:48:56.051Z,7.80
2017-11-08T21:51:23.782Z,7.80
2017-11-08T21:53:51.346Z,7.70
2017-11-08T21:56:18.931Z,7.70
2017-11-08T21:58:46.500Z,7.60
2017-11-08T22:01:14.049Z,7.50
2017-11-08T22:03:41.623Z,7.60
2017-11-08T22:06:09.189Z,7.50
2017-11-08T22:08:36.759Z,7.50
2017-11-08T22:11:05.099Z,7.60
2017-11-08T22:13:32.678Z,7.60
2017-11-08T22:16:00.261Z,7.50
2017-11-08T22:18:28.587Z,7.50
2017-11-08T22:20:56.167Z,7.50
2017-11-08T22:23:23.743Z,7.50
2017-11-08T22:25:51.346Z,7.50
2017-11-08T22:28:18.933Z,7.60
2017-11-08T22:30:46.536Z,7.50
2017-11-08T22:33:14.138Z,7.50
2017-11-08T22:35:41.691Z,7.50
2017-11-08T22:38:09.266Z,7.50
2017-11-08T22:40:36.832Z,7.50
2017-11-08T22:43:05.936Z,7.50
2017-11-08T22:45:33.464Z,7.50
2017-11-08T22:48:01.039Z,7.50
2017-11-08T22:50:29.030Z,7.40
2017-11-08T22:52:56.618Z,7.40
2017-11-08T22:55:24.189Z,7.50
2017-11-08T22:57:52.534Z,7.50
2017-11-08T23:00:20.087Z,7.50
2017-11-08T23:02:47.665Z,7.50
2017-11-08T23:05:16.043Z,7.40
2017-11-08T23:07:43.637Z,7.30
2017-11-08T23:10:11.964Z,7.40
2017-11-08T23:12:39.526Z,7.40
2017-11-08T23:15:07.083Z,7.40
2017-11-08T23:17:35.197Z,7.30
2017-11-08T23:20:03.517Z,7.30
2017-11-08T23:22:31.102Z,7.20
2017-11-08T23:24:58.787Z,7.30
2017-11-08T23:27:27.112Z,7.30
2017-11-08T23:29:54.676Z,7.30
2017-11-08T23:32:22.242Z,7.30
2017-11-08T23:34:49.816Z,7.40
2017-11-08T23:37:17.409Z,7.30
2017-11-08T23:39:45.738Z,7.30
2017-11-08T23:42:13.307Z,7.30
2017-11-08T23:44:40.853Z,7.30
2017-11-08T23:47:08.458Z,7.30
2017-11-08T23:49:36.006Z,7.30
2017-11-08T23:52:03.583Z,7.30
2017-11-08T23:54:37.801Z,7.30
2017-11-08T23:57:05.358Z,7.30
2017-11-08T23:59:32.916Z,7.30
